CheckWX is a tool to help pilots better visualize weather data.  It is not intended as a substitute for an official pre-flight weather briefing.

07:06:20 UTC

KASE TAF
Aspen-Pitkin Co / Sardy Field Airport
Aspen, Colorado, USA
KASE 150532Z 1506/1606 21006KT P6SM SCT200 FM152000 29005KT P6SM FEW100 BKN180 FM152300 25005KT P6SM FEW100 BKN200 FM160300 19005KT P6SM FEW100 FEW250

Nov-15@
06:00 UTC

Nov-15 @ 06:00 UTC

Nov-15@
20:00 UTC

Nov-15 @ 20:00 UTC

KASE 150532Z 1506/1606 21006KT P6SM SCT200
Wind
  • 210° at 6 KTS
Cloud Levels
  • Scattered at 20,000' AGL

Nov-15@
20:00 UTC

Nov-15 @ 20:00 UTC

Nov-15@
23:00 UTC

Nov-15 @ 23:00 UTC

FM152000 29005KT P6SM FEW100 BKN180

From

From Standard forecast or significant change

Wind
  • 290° at 5 KTS
Cloud Levels
  • Few at 10,000' AGL
  • Broken at 18,000' AGL

Nov-15@
23:00 UTC

Nov-15 @ 23:00 UTC

Nov-16@
03:00 UTC

Nov-16 @ 03:00 UTC

FM152300 25005KT P6SM FEW100 BKN200

From

From Standard forecast or significant change

Wind
  • 250° at 5 KTS
Cloud Levels
  • Few at 10,000' AGL
  • Broken at 20,000' AGL

Nov-16@
03:00 UTC

Nov-16 @ 03:00 UTC

Nov-16@
06:00 UTC

Nov-16 @ 06:00 UTC

FM160300 19005KT P6SM FEW100 FEW250

From

From Standard forecast or significant change

Wind
  • 190° at 5 KTS
Cloud Levels
  • Few at 10,000' AGL
  • Few at 25,000' AGL